Time;durP1;ratioP1;P1;durP2;ratioP2;P2;SDS_P1;SDS_P2;PMS_P1;PMS_P2;Temp;Humidity;BMP_temperature;BMP_pressure;BME280_temperature;BME280_humidity;BME280_pressure;Samples;Min_cycle;Max_cycle;Signal;HPM_P1;HPM_P2
2022/02/10 00:03:14;;;;;;;23.80;17.85;;;;;;;;;;4832349;29;87437;-77
2022/02/10 00:07:40;;;;;;;21.55;17.60;;;;;;;;;;4802996;29;90009;-77
2022/02/10 00:18:20;;;;;;;24.70;17.50;;;;;;;;;;4829243;29;89153;-77
2022/02/10 00:20:54;;;;;;;22.90;16.75;;;;;;;;;;4830582;29;87882;-77
2022/02/10 00:34:30;;;;;;;21.80;16.85;;;;;;;;;;4830816;29;86887;-77
2022/02/10 00:39:54;;;;;;;22.85;16.95;;;;;;;;;;4822610;29;89707;-77
2022/02/10 00:42:21;;;;;;;21.55;16.63;;;;;;;;;;4814518;29;88552;-74
2022/02/10 00:44:48;;;;;;;24.38;16.98;;;;;;;;;;4829854;29;86812;-76
2022/02/10 00:47:15;;;;;;;25.63;16.25;;;;;;;;;;4829434;29;87696;-77
2022/02/10 00:49:42;;;;;;;21.13;16.90;;;;;;;;;;4828287;29;87991;-74
2022/02/10 00:52:10;;;;;;;26.17;18.63;;;;;;;;;;4828282;29;88510;-75
2022/02/10 00:54:39;;;;;;;21.30;16.42;;;;;;;;;;4815424;29;86956;-77
2022/02/10 00:57:09;;;;;;;21.50;16.42;;;;;;;;;;4812519;29;86843;-75
2022/02/10 01:02:17;;;;;;;28.48;16.58;;;;;;;;;;4812804;29;88058;-73
2022/02/10 01:12:58;;;;;;;25.55;16.92;;;;;;;;;;4829693;29;88044;-74
2022/02/10 01:31:50;;;;;;;23.98;16.05;;;;;;;;;;4815144;29;88749;-76
2022/02/10 01:34:17;;;;;;;22.00;16.05;;;;;;;;;;4827038;29;89482;-74
2022/02/10 01:36:44;;;;;;;21.20;15.43;;;;;;;;;;4829492;29;87028;-76
2022/02/10 01:39:11;;;;;;;26.05;17.02;;;;;;;;;;4826456;29;87086;-75
2022/02/10 02:03:52;;;;;;;30.27;16.17;;;;;;;;;;4828006;29;87000;-76
2022/02/10 02:06:39;;;;;;;23.55;15.90;;;;;;;;;;4827547;29;87553;-74
2022/02/10 02:09:10;;;;;;;16.95;15.07;;;;;;;;;;4827546;29;86973;-77
2022/02/10 02:11:39;;;;;;;17.45;14.25;;;;;;;;;;4827207;29;86913;-76
2022/02/10 02:14:09;;;;;;;23.50;15.07;;;;;;;;;;4827646;29;86893;-77
2022/02/10 02:16:44;;;;;;;17.75;13.50;;;;;;;;;;4828154;29;86579;-77
2022/02/10 02:19:12;;;;;;;18.55;14.18;;;;;;;;;;4827145;29;87082;-77
2022/02/10 02:21:42;;;;;;;20.05;15.43;;;;;;;;;;4827485;29;87035;-77
2022/02/10 02:24:13;;;;;;;15.68;13.95;;;;;;;;;;4826627;29;88755;-77
2022/02/10 02:26:41;;;;;;;24.13;16.70;;;;;;;;;;4827434;29;89445;-76
2022/02/10 02:29:11;;;;;;;22.58;16.13;;;;;;;;;;4827086;29;86893;-76
2022/02/10 02:31:47;;;;;;;21.70;17.20;;;;;;;;;;4822487;29;86965;-76
2022/02/10 02:40:09;;;;;;;21.10;16.02;;;;;;;;;;4828354;29;87065;-76
2022/02/10 03:09:54;;;;;;;20.17;16.25;;;;;;;;;;4802287;29;89269;-77
2022/02/10 03:12:22;;;;;;;20.90;15.65;;;;;;;;;;4802975;29;86896;-76
2022/02/10 03:14:52;;;;;;;24.95;16.98;;;;;;;;;;4830256;29;87067;-77
2022/02/10 04:13:04;;;;;;;20.02;16.80;;;;;;;;;;4829202;29;88703;-77
2022/02/10 04:15:03;;;;;;;20.75;17.90;;;;;;;;;;4808513;29;87364;-77
2022/02/10 04:30:50;;;;;;;25.42;21.30;;;;;;;;;;4826227;29;86224;-75
2022/02/10 04:39:45;;;;;;;22.80;17.38;;;;;;;;;;4814581;29;87965;-76
2022/02/10 05:17:42;;;;;;;24.25;17.63;;;;;;;;;;4828601;29;87715;-75
2022/02/10 05:36:01;;;;;;;24.38;15.73;;;;;;;;;;4817365;29;86971;-75
2022/02/10 05:38:42;;;;;;;24.20;16.77;;;;;;;;;;4809613;29;88294;-75
2022/02/10 05:46:49;;;;;;;18.92;15.63;;;;;;;;;;4809327;29;87033;-76
2022/02/10 05:52:28;;;;;;;20.50;17.13;;;;;;;;;;4828939;29;87562;-79
2022/02/10 05:54:53;;;;;;;22.13;16.05;;;;;;;;;;4823289;29;87373;-80
2022/02/10 05:57:48;;;;;;;22.17;14.27;;;;;;;;;;4828717;29;87110;-76
2022/02/10 06:57:36;;;;;;;21.42;15.27;;;;;;;;;;4835433;29;89073;-74
2022/02/10 07:03:33;;;;;;;18.05;13.85;;;;;;;;;;4823267;29;87027;-73
2022/02/10 07:09:02;;;;;;;21.85;12.77;;;;;;;;;;4807533;29;89039;-73
2022/02/10 07:14:43;;;;;;;20.65;13.07;;;;;;;;;;4839846;29;86270;-74
2022/02/10 08:00:50;;;;;;;23.90;16.17;;;;;;;;;;4814230;29;89295;-76
2022/02/10 08:50:17;;;;;;;20.67;12.45;;;;;;;;;;4822367;29;87106;-76
2022/02/10 08:55:37;;;;;;;23.58;12.77;;;;;;;;;;4829081;29;88199;-76
2022/02/10 09:06:02;;;;;;;30.45;13.80;;;;;;;;;;4827740;29;88052;-76
2022/02/10 09:14:14;;;;;;;20.45;13.45;;;;;;;;;;4826252;29;87139;-76
2022/02/10 10:02:46;;;;;;;32.92;12.05;;;;;;;;;;4845889;29;86777;-76
2022/02/10 10:18:44;;;;;;;26.02;13.20;;;;;;;;;;4832721;29;86879;-77
2022/02/10 10:49:39;;;;;;;21.65;9.15;;;;;;;;;;4839531;29;87004;-80
2022/02/10 10:52:26;;;;;;;13.90;9.48;;;;;;;;;;4830070;29;86112;-79
2022/02/10 10:55:28;;;;;;;18.55;8.68;;;;;;;;;;4818460;29;87852;-78
2022/02/10 10:57:55;;;;;;;15.70;8.95;;;;;;;;;;4829005;29;88122;-80
2022/02/10 11:00:45;;;;;;;23.58;8.82;;;;;;;;;;4812056;29;88216;-79
2022/02/10 11:03:42;;;;;;;18.83;10.60;;;;;;;;;;4832740;29;86862;-79
2022/02/10 11:38:25;;;;;;;23.05;8.73;;;;;;;;;;4817809;29;87144;-75
2022/02/10 13:26:52;;;;;;;21.50;6.45;;;;;;;;;;4836596;29;88285;-73
2022/02/10 14:13:29;;;;;;;11.90;5.65;;;;;;;;;;4838485;29;86928;-73
2022/02/10 14:16:14;;;;;;;13.75;7.03;;;;;;;;;;4827800;29;86951;-74
2022/02/10 14:18:51;;;;;;;11.00;6.38;;;;;;;;;;4839593;29;89122;-74
2022/02/10 14:21:23;;;;;;;8.77;5.28;;;;;;;;;;4841497;29;87369;-73
2022/02/10 14:26:31;;;;;;;14.90;5.53;;;;;;;;;;4826982;29;87246;-74
2022/02/10 14:28:59;;;;;;;10.13;5.85;;;;;;;;;;4828459;29;87771;-76
2022/02/10 14:31:26;;;;;;;9.85;5.63;;;;;;;;;;4828536;29;87521;-79
2022/02/10 14:33:55;;;;;;;19.25;5.82;;;;;;;;;;4827122;29;86934;-69
2022/02/10 14:36:39;;;;;;;12.43;4.90;;;;;;;;;;4829664;29;86336;-70
2022/02/10 15:16:12;;;;;;;19.98;5.50;;;;;;;;;;4825350;29;88368;-73
2022/02/10 15:51:27;;;;;;;16.80;5.90;;;;;;;;;;4829381;29;87550;-72
2022/02/10 15:56:27;;;;;;;15.82;6.78;;;;;;;;;;4816196;29;89024;-72
2022/02/10 16:17:56;;;;;;;30.50;14.15;;;;;;;;;;4824467;29;88370;-72
2022/02/10 16:20:29;;;;;;;30.35;14.73;;;;;;;;;;4840218;29;87577;-74
2022/02/10 16:23:06;;;;;;;20.40;12.25;;;;;;;;;;4820936;29;87033;-72
2022/02/10 16:25:38;;;;;;;15.52;10.45;;;;;;;;;;4827807;29;86327;-73
2022/02/10 16:28:28;;;;;;;28.98;12.98;;;;;;;;;;4825887;29;87888;-73
2022/02/10 16:30:55;;;;;;;19.98;11.60;;;;;;;;;;4826853;29;88396;-72
2022/02/10 16:33:23;;;;;;;24.23;11.93;;;;;;;;;;4824775;29;88533;-74
2022/02/10 16:35:50;;;;;;;23.75;13.20;;;;;;;;;;4818597;29;87132;-72
2022/02/10 16:38:17;;;;;;;25.00;12.60;;;;;;;;;;4827939;29;89686;-72
2022/02/10 16:40:44;;;;;;;21.40;12.10;;;;;;;;;;4821897;29;90238;-72
2022/02/10 16:43:13;;;;;;;26.55;12.80;;;;;;;;;;4827653;29;86874;-73
2022/02/10 16:45:40;;;;;;;25.45;14.00;;;;;;;;;;4828854;29;86945;-73
2022/02/10 16:48:08;;;;;;;24.15;14.90;;;;;;;;;;4812672;29;87890;-72
2022/02/10 16:50:35;;;;;;;25.98;16.95;;;;;;;;;;4812977;29;86499;-73
2022/02/10 16:53:08;;;;;;;33.42;18.70;;;;;;;;;;4827785;29;87367;-74
2022/02/10 16:55:48;;;;;;;39.22;19.88;;;;;;;;;;4839537;29;86895;-72
2022/02/10 16:58:37;;;;;;;19.10;13.70;;;;;;;;;;4819641;29;88705;-72
2022/02/10 17:20:00;;;;;;;26.35;14.68;;;;;;;;;;4828222;29;87823;-73
2022/02/10 17:27:41;;;;;;;52.78;16.92;;;;;;;;;;4814287;29;87030;-73
2022/02/10 17:54:24;;;;;;;35.15;20.08;;;;;;;;;;4842530;29;88509;-73
2022/02/10 17:56:51;;;;;;;56.60;22.05;;;;;;;;;;4827688;29;87313;-73
2022/02/10 17:59:20;;;;;;;32.13;17.17;;;;;;;;;;4825300;29;87038;-73
2022/02/10 18:01:49;;;;;;;26.23;17.60;;;;;;;;;;4835892;29;89672;-73
2022/02/10 18:04:17;;;;;;;23.85;16.08;;;;;;;;;;4838084;29;87414;-73
2022/02/10 18:06:47;;;;;;;21.20;15.10;;;;;;;;;;4842157;29;86939;-73
2022/02/10 18:12:43;;;;;;;20.40;13.80;;;;;;;;;;4810660;29;88123;-73
2022/02/10 18:17:36;;;;;;;31.85;15.27;;;;;;;;;;4822209;29;87845;-73
2022/02/10 18:20:10;;;;;;;23.30;15.88;;;;;;;;;;4825366;29;87002;-74
2022/02/10 18:25:22;;;;;;;30.20;14.98;;;;;;;;;;4832715;29;88791;-73
2022/02/10 18:37:51;;;;;;;21.60;15.15;;;;;;;;;;4832428;29;87479;-73
2022/02/10 19:11:18;;;;;;;35.90;21.13;;;;;;;;;;4843780;29;88498;-74
2022/02/10 19:13:47;;;;;;;35.00;23.70;;;;;;;;;;4833145;29;87035;-73
2022/02/10 19:16:19;;;;;;;35.58;21.75;;;;;;;;;;4831255;29;90508;-74
2022/02/10 19:18:52;;;;;;;44.72;20.67;;;;;;;;;;4833399;29;87288;-73
2022/02/10 19:21:20;;;;;;;33.25;19.23;;;;;;;;;;4831926;29;86997;-73
2022/02/10 19:23:47;;;;;;;30.92;19.83;;;;;;;;;;4835906;29;87018;-73
2022/02/10 19:26:14;;;;;;;32.15;17.55;;;;;;;;;;4850421;29;89219;-76
2022/02/10 19:28:41;;;;;;;40.03;22.17;;;;;;;;;;4824424;29;89619;-74
2022/02/10 19:31:10;;;;;;;39.55;23.30;;;;;;;;;;4831759;29;87040;-75
2022/02/10 19:33:37;;;;;;;32.95;22.10;;;;;;;;;;4835082;29;86828;-77
2022/02/10 19:36:05;;;;;;;40.58;24.98;;;;;;;;;;4845347;29;89895;-76
2022/02/10 19:38:32;;;;;;;63.80;27.23;;;;;;;;;;4845296;29;90161;-80
2022/02/10 19:40:59;;;;;;;51.47;29.05;;;;;;;;;;4814768;29;87053;-73
2022/02/10 19:43:48;;;;;;;45.83;30.63;;;;;;;;;;4831834;29;87023;-76
2022/02/10 19:46:15;;;;;;;62.00;33.60;;;;;;;;;;4797181;29;89092;-76
2022/02/10 19:48:42;;;;;;;36.88;27.25;;;;;;;;;;4828594;29;88110;-76
2022/02/10 19:51:09;;;;;;;39.70;27.17;;;;;;;;;;4829061;29;86989;-76
2022/02/10 19:53:36;;;;;;;38.67;24.27;;;;;;;;;;4827665;29;86442;-79
2022/02/10 19:56:04;;;;;;;33.78;22.67;;;;;;;;;;4844280;29;88013;-76
2022/02/10 19:58:32;;;;;;;30.02;20.27;;;;;;;;;;4843903;29;88995;-77
2022/02/10 20:01:01;;;;;;;28.67;19.17;;;;;;;;;;4826557;29;87975;-77
2022/02/10 20:03:31;;;;;;;25.70;17.92;;;;;;;;;;4844604;29;87029;-77
2022/02/10 20:06:00;;;;;;;31.20;19.23;;;;;;;;;;4842062;29;89343;-76
2022/02/10 20:08:27;;;;;;;29.20;19.45;;;;;;;;;;4844241;29;87739;-76
2022/02/10 20:10:55;;;;;;;34.72;20.17;;;;;;;;;;4844087;29;87277;-77
2022/02/10 20:13:23;;;;;;;27.92;19.60;;;;;;;;;;4839007;29;86952;-76
2022/02/10 20:15:51;;;;;;;28.73;20.58;;;;;;;;;;4828134;29;88028;-78
2022/02/10 20:18:19;;;;;;;26.60;18.13;;;;;;;;;;4826838;29;89732;-78
2022/02/10 20:20:53;;;;;;;27.35;18.58;;;;;;;;;;4830475;29;87627;-79
2022/02/10 20:23:21;;;;;;;26.70;19.63;;;;;;;;;;4824232;29;87393;-80
2022/02/10 20:26:07;;;;;;;32.90;19.55;;;;;;;;;;4836223;29;90418;-76
2022/02/10 20:28:34;;;;;;;26.67;18.52;;;;;;;;;;4843393;29;88317;-78
2022/02/10 20:31:02;;;;;;;33.17;20.63;;;;;;;;;;4838292;29;87298;-78
2022/02/10 20:33:31;;;;;;;29.70;18.13;;;;;;;;;;4829678;29;88280;-78
2022/02/10 20:36:01;;;;;;;26.83;20.80;;;;;;;;;;4837173;29;89164;-78
2022/02/10 20:38:29;;;;;;;29.25;19.08;;;;;;;;;;4811202;29;88223;-78
2022/02/10 20:41:10;;;;;;;33.75;23.88;;;;;;;;;;4844534;29;87045;-78
2022/02/10 20:43:37;;;;;;;32.47;22.75;;;;;;;;;;4834945;29;86459;-78
2022/02/10 20:46:08;;;;;;;31.05;22.60;;;;;;;;;;4838631;29;87857;-77
2022/02/10 20:48:38;;;;;;;39.10;23.33;;;;;;;;;;4828950;29;89116;-80
2022/02/10 20:51:12;;;;;;;37.75;20.67;;;;;;;;;;4827799;29;88024;-79
2022/02/10 20:53:42;;;;;;;32.15;20.75;;;;;;;;;;4823670;29;87001;-80
2022/02/10 20:56:11;;;;;;;37.88;23.27;;;;;;;;;;4811306;29;88189;-78
2022/02/10 20:58:40;;;;;;;37.85;23.83;;;;;;;;;;4814422;29;87731;-79
2022/02/10 21:01:11;;;;;;;29.02;22.85;;;;;;;;;;4813850;29;87015;-82
2022/02/10 21:03:39;;;;;;;26.85;21.75;;;;;;;;;;4813177;29;86944;-79
2022/02/10 21:11:10;;;;;;;29.40;21.42;;;;;;;;;;4828715;29;87667;-79
2022/02/10 21:13:38;;;;;;;33.55;22.95;;;;;;;;;;4826687;29;87386;-79
2022/02/10 21:16:05;;;;;;;29.55;21.77;;;;;;;;;;4836683;29;91828;-78
2022/02/10 21:18:34;;;;;;;27.45;21.25;;;;;;;;;;4825307;29;90451;-76
2022/02/10 21:21:08;;;;;;;26.42;19.00;;;;;;;;;;4823473;29;86918;-75
2022/02/10 21:23:47;;;;;;;29.80;21.08;;;;;;;;;;4825616;29;87019;-75
2022/02/10 21:26:19;;;;;;;35.58;22.20;;;;;;;;;;4824582;29;89975;-74
2022/02/10 21:28:48;;;;;;;31.35;20.67;;;;;;;;;;4819902;29;88983;-80
2022/02/10 21:31:15;;;;;;;29.00;20.80;;;;;;;;;;4822816;29;87726;-79
2022/02/10 21:33:49;;;;;;;27.23;20.90;;;;;;;;;;4827099;29;86194;-78
2022/02/10 21:39:18;;;;;;;28.92;20.90;;;;;;;;;;4828632;29;89253;-76
2022/02/10 22:09:50;;;;;;;27.88;20.98;;;;;;;;;;4811346;29;90579;-75
2022/02/10 22:20:07;;;;;;;30.20;22.98;;;;;;;;;;4824094;29;89047;-76
2022/02/10 22:22:48;;;;;;;30.00;21.98;;;;;;;;;;4828007;29;87870;-76
2022/02/10 22:25:16;;;;;;;29.95;21.35;;;;;;;;;;4821513;29;86836;-78
2022/02/10 22:27:47;;;;;;;27.65;19.38;;;;;;;;;;4824258;29;86263;-75
2022/02/10 22:30:28;;;;;;;28.58;19.65;;;;;;;;;;4840088;29;87831;-75
2022/02/10 22:33:19;;;;;;;24.90;17.77;;;;;;;;;;4800232;29;88647;-75
2022/02/10 22:35:46;;;;;;;28.45;18.23;;;;;;;;;;4818533;29;87765;-76
2022/02/10 22:38:13;;;;;;;30.95;19.63;;;;;;;;;;4824264;29;87709;-77
2022/02/10 22:40:57;;;;;;;27.63;17.95;;;;;;;;;;4820319;29;90668;-77
2022/02/10 22:43:24;;;;;;;27.15;19.42;;;;;;;;;;4825069;29;88556;-76
2022/02/10 22:45:51;;;;;;;27.52;20.95;;;;;;;;;;4824371;29;87082;-75
2022/02/10 22:48:18;;;;;;;24.48;19.90;;;;;;;;;;4822597;29;87378;-76
2022/02/10 22:50:46;;;;;;;25.67;18.95;;;;;;;;;;4824850;29;87982;-79
2022/02/10 22:53:13;;;;;;;22.73;18.48;;;;;;;;;;4816374;29;88897;-75
2022/02/10 22:55:41;;;;;;;30.45;19.88;;;;;;;;;;4797314;29;86973;-75
2022/02/10 22:58:08;;;;;;;23.98;17.70;;;;;;;;;;4846056;29;87299;-75
2022/02/10 23:00:47;;;;;;;24.05;18.38;;;;;;;;;;4822018;29;89007;-76
2022/02/10 23:03:20;;;;;;;26.17;17.77;;;;;;;;;;4840579;29;88762;-74
2022/02/10 23:05:48;;;;;;;20.92;16.83;;;;;;;;;;4815892;29;86942;-75
2022/02/10 23:08:15;;;;;;;19.50;17.13;;;;;;;;;;4845364;29;87192;-81
2022/02/10 23:10:47;;;;;;;25.65;19.20;;;;;;;;;;4838328;29;90059;-75
2022/02/10 23:13:25;;;;;;;27.33;18.58;;;;;;;;;;4829384;29;89026;-74
2022/02/10 23:15:53;;;;;;;24.63;16.23;;;;;;;;;;4840654;29;86952;-76
2022/02/10 23:18:31;;;;;;;31.27;19.25;;;;;;;;;;4815018;29;86330;-76
2022/02/10 23:21:01;;;;;;;23.60;17.88;;;;;;;;;;4823653;29;87614;-75
2022/02/10 23:23:29;;;;;;;24.40;18.10;;;;;;;;;;4832428;29;89567;-76
2022/02/10 23:25:58;;;;;;;22.58;16.98;;;;;;;;;;4829336;29;87839;-76
2022/02/10 23:28:30;;;;;;;23.15;17.38;;;;;;;;;;4831797;29;87438;-75
2022/02/10 23:30:59;;;;;;;26.05;17.33;;;;;;;;;;4828627;29;87873;-76
2022/02/10 23:33:32;;;;;;;26.77;17.33;;;;;;;;;;4824991;29;87111;-76
2022/02/10 23:39:00;;;;;;;26.23;18.05;;;;;;;;;;4819459;29;87082;-75
2022/02/10 23:41:52;;;;;;;30.63;19.23;;;;;;;;;;4828152;29;89075;-75
2022/02/10 23:44:36;;;;;;;28.55;17.90;;;;;;;;;;4810872;29;90853;-79
2022/02/10 23:47:06;;;;;;;23.83;17.80;;;;;;;;;;4823981;29;86985;-75
2022/02/10 23:49:35;;;;;;;22.33;16.85;;;;;;;;;;4841843;29;87304;-75
2022/02/10 23:52:05;;;;;;;23.00;15.88;;;;;;;;;;4827365;29;89581;-76
2022/02/10 23:54:38;;;;;;;23.05;17.02;;;;;;;;;;4829192;29;88866;-76
2022/02/10 23:58:01;;;;;;;19.77;16.88;;;;;;;;;;4828946;29;86903;-77
